Albany Center, Vermont
Current Conditions -  °F | °C
As of 4:55 PM on Thursday 27 Nov 2014 (Local Time) from KEFK Reporting Station
Overcast Overcast  
Wind Chill: 17°   Ceiling: 2100
Heat Index: 24°   Visibility: 10mi
Dew Point: 19°   Wind: 6mph
Humidity: 79%   Direction: 340°NNW
Pressure: 30"   Gusts: NA
Location:  44.8143°N, 72.284°W
Report Text: KEFK 272155Z AUTO 34005KT 10SM OVC021 M04/M07 A3000 RMK AO2 T10441075
Loading
Personal Weather Stations






























Interactive Weather Map New forecast layout! Learn more

10-Day Weather Forecast

Advertisements
Track Severe Weather on mobile